Alpine Light — V7UJ6 — position and weather

sailwx.info

Track history (hours):
 
Tides and Currents Weather Stations Pressure Air Temp Water Temp Dewpoint Dewpoint Depression Visibility Wind Speed Wind Dir Waves Ship Positions

Alpine Light

Last reported at 2017-Jun-01 02:19 UTC. Time now 2017-Aug-22 10:59 UTC.
Position N 01°12' E 103°36'.
Warning: this ship's position is months out of date.

Length 183 m; draft 8 m.

Type: Tanker. MMSI: 538003962.

Date/timePositionNaut miles runAvg speedWind from/ knotsBaromVisibWave heightAir tempDewpointWater temp
2017-Jun-01 02:19N 01°12' E 103°36'411.9
2017-Jun-01 02:00N 01°11' E 103°39'611.8
2017-Jun-01 01:29N 01°09' E 103°45'4 9.0
2017-Jun-01 01:00N 01°11' E 103°49'  
2017-May-23 06:57N 01°12' E 103°52'4 8.4
2017-May-23 06:30N 01°12' E 103°49'2 2.9
2017-May-23 05:56N 01°14' E 103°48'0 0.0
2017-May-23 05:29N 01°14' E 103°48'0 0.0
2017-May-23 04:44N 01°14' E 103°48'0 0.1
2017-May-23 04:29N 01°14' E 103°48'0 0.0
2017-May-23 02:53N 01°14' E 103°48'0 0.1
2017-May-23 02:23N 01°14' E 103°48'0 0.1
2017-May-23 01:50N 01°14' E 103°48'0 0.1
2017-May-23 00:53N 01°14' E 103°48'0 0.1
2017-May-23 00:29N 01°14' E 103°48'0 0.0
2017-May-22 23:53N 01°14' E 103°48'0 0.1
2017-May-22 22:44N 01°14' E 103°48'0 0.1
2017-May-22 22:14N 01°14' E 103°48'0 0.2
2017-May-22 21:59N 01°14' E 103°48'0 0.0
2017-May-22 21:29N 01°14' E 103°48'0 0.0
2017-May-22 20:59N 01°14' E 103°48'0 0.1
2017-May-22 20:26N 01°14' E 103°48'0 0.1
2017-May-22 19:50N 01°14' E 103°48'0 0.0
2017-May-22 19:29N 01°14' E 103°48'0 0.1
2017-May-22 18:53N 01°14' E 103°48'1 3.7
2017-May-22 18:30N 01°14' E 103°47'510.0
2017-May-22 17:59N 01°13' E 103°42'5 9.8
2017-May-22 17:30N 01°13' E 103°37'3 5.3
2017-May-22 17:00N 01°13' E 103°35'2 3.2
2017-May-22 16:24N 01°14' E 103°34'0 0.1
2017-May-22 14:59N 01°14' E 103°34'2 3.2
2017-May-22 14:30N 01°16' E 103°34'  
Track history (hours):
 
Tides and Currents Weather Stations Pressure Air Temp Water Temp Dewpoint Dewpoint Depression Visibility Wind Speed Wind Dir Waves Ship Positions

Alpine Light

Last reported at 2017-Jun-01 02:19 UTC. Time now 2017-Aug-22 10:59 UTC.
Position N 01°12' E 103°36'.
Warning: this ship's position is months out of date.

Length 183 m; draft 8 m.

Type: Tanker. MMSI: 538003962.

Date/timePositionNaut miles runAvg speedWind from/ knotsBaromVisibWave heightAir tempDewpointWater temp
2017-Jun-01 02:19N 01°12' E 103°36'411.9
2017-Jun-01 02:00N 01°11' E 103°39'611.8
2017-Jun-01 01:29N 01°09' E 103°45'4 9.0
2017-Jun-01 01:00N 01°11' E 103°49'  
2017-May-23 06:57N 01°12' E 103°52'4 8.4
2017-May-23 06:30N 01°12' E 103°49'2 2.9
2017-May-23 05:56N 01°14' E 103°48'0 0.0
2017-May-23 05:29N 01°14' E 103°48'0 0.0
2017-May-23 04:44N 01°14' E 103°48'0 0.1
2017-May-23 04:29N 01°14' E 103°48'0 0.0
2017-May-23 02:53N 01°14' E 103°48'0 0.1
2017-May-23 02:23N 01°14' E 103°48'0 0.1
2017-May-23 01:50N 01°14' E 103°48'0 0.1
2017-May-23 00:53N 01°14' E 103°48'0 0.1
2017-May-23 00:29N 01°14' E 103°48'0 0.0
2017-May-22 23:53N 01°14' E 103°48'0 0.1
2017-May-22 22:44N 01°14' E 103°48'0 0.1
2017-May-22 22:14N 01°14' E 103°48'0 0.2
2017-May-22 21:59N 01°14' E 103°48'0 0.0
2017-May-22 21:29N 01°14' E 103°48'0 0.0
2017-May-22 20:59N 01°14' E 103°48'0 0.1
2017-May-22 20:26N 01°14' E 103°48'0 0.1
2017-May-22 19:50N 01°14' E 103°48'0 0.0
2017-May-22 19:29N 01°14' E 103°48'0 0.1
2017-May-22 18:53N 01°14' E 103°48'1 3.7
2017-May-22 18:30N 01°14' E 103°47'510.0
2017-May-22 17:59N 01°13' E 103°42'5 9.8
2017-May-22 17:30N 01°13' E 103°37'3 5.3
2017-May-22 17:00N 01°13' E 103°35'2 3.2
2017-May-22 16:24N 01°14' E 103°34'0 0.1
2017-May-22 14:59N 01°14' E 103°34'2 3.2
2017-May-22 14:30N 01°16' E 103°34'  

Dump ship's entire track history